San Diego, California
Traffic Map
Current Weather Conditions
San Diego, California
Overcast
Overcast
64°
Feels Like: 64°
Wind Chill: 64° Ceiling: 1200
Heat Index: 64° Visibility: 8mi
Dew Point: 58° Wind: 0mph
Humidity: 80% Direction: ° ()
Pressure: 29.88in Gusts: 0mph
Raw Report DataKSAN 250951Z 00000KT 8SM OVC012 18/14 A2988 RMK AO2 SLP118 T01780144 $
Traffic Incident Summary
Active as of:
Severity:
Category:
InformationThere was an issue retrieving the traffic information for this location. Please try a different location or try again shortly.
Advertisements
Track Severe Weather on mobile